sensor_id;sensor_type;location;lat;lon;timestamp;pressure;altitude;pressure_sealevel;temperature;humidity
10014;BME280;45684;48.358;10.746;2023-04-08T00:01:13;96295.84;;;6.41;100.00
10014;BME280;45684;48.358;10.746;2023-04-08T00:03:40;96301.97;;;6.46;100.00
10014;BME280;45684;48.358;10.746;2023-04-08T00:06:08;96300.06;;;6.47;100.00
10014;BME280;45684;48.358;10.746;2023-04-08T00:08:36;96294.75;;;6.42;100.00
10014;BME280;45684;48.358;10.746;2023-04-08T00:11:06;96297.75;;;6.40;100.00
10014;BME280;45684;48.358;10.746;2023-04-08T00:13:38;96304.22;;;6.34;100.00
10014;BME280;45684;48.358;10.746;2023-04-08T00:16:06;96303.44;;;6.33;100.00
10014;BME280;45684;48.358;10.746;2023-04-08T00:18:34;96304.03;;;6.30;100.00
10014;BME280;45684;48.358;10.746;2023-04-08T00:21:03;96306.78;;;6.25;100.00
10014;BME280;45684;48.358;10.746;2023-04-08T00:23:31;96307.56;;;6.26;100.00
10014;BME280;45684;48.358;10.746;2023-04-08T00:25:59;96306.19;;;6.28;100.00
10014;BME280;45684;48.358;10.746;2023-04-08T00:28:28;96312.09;;;6.30;100.00
10014;BME280;45684;48.358;10.746;2023-04-08T00:30:56;96310.06;;;6.41;100.00
10014;BME280;45684;48.358;10.746;2023-04-08T00:33:24;96311.00;;;6.55;100.00
10014;BME280;45684;48.358;10.746;2023-04-08T00:35:52;96309.66;;;6.77;100.00
10014;BME280;45684;48.358;10.746;2023-04-08T00:38:19;96308.56;;;6.78;100.00
10014;BME280;45684;48.358;10.746;2023-04-08T00:40:47;96304.00;;;6.78;100.00
10014;BME280;45684;48.358;10.746;2023-04-08T00:43:15;96304.78;;;6.79;100.00
10014;BME280;45684;48.358;10.746;2023-04-08T00:45:47;96301.59;;;6.77;100.00
10014;BME280;45684;48.358;10.746;2023-04-08T00:48:15;96303.25;;;6.73;100.00
10014;BME280;45684;48.358;10.746;2023-04-08T00:50:43;96307.41;;;6.84;100.00
10014;BME280;45684;48.358;10.746;2023-04-08T00:53:14;96306.25;;;6.90;100.00
10014;BME280;45684;48.358;10.746;2023-04-08T00:55:42;96305.97;;;6.92;100.00
10014;BME280;45684;48.358;10.746;2023-04-08T00:58:11;96301.81;;;6.99;100.00
10014;BME280;45684;48.358;10.746;2023-04-08T01:00:43;96305.53;;;7.03;100.00
10014;BME280;45684;48.358;10.746;2023-04-08T01:03:17;96303.06;;;7.07;100.00
10014;BME280;45684;48.358;10.746;2023-04-08T01:05:52;96299.88;;;7.05;100.00
10014;BME280;45684;48.358;10.746;2023-04-08T01:08:25;96302.28;;;7.06;100.00
10014;BME280;45684;48.358;10.746;2023-04-08T01:10:58;96297.13;;;7.10;100.00
10014;BME280;45684;48.358;10.746;2023-04-08T01:13:30;96297.13;;;7.10;100.00
10014;BME280;45684;48.358;10.746;2023-04-08T01:16:02;96302.50;;;7.10;100.00
10014;BME280;45684;48.358;10.746;2023-04-08T01:18:32;96294.66;;;7.13;100.00
10014;BME280;45684;48.358;10.746;2023-04-08T01:21:02;96300.31;;;7.12;100.00
10014;BME280;45684;48.358;10.746;2023-04-08T01:23:38;96296.84;;;7.11;100.00
10014;BME280;45684;48.358;10.746;2023-04-08T01:26:10;96286.66;;;7.08;100.00
10014;BME280;45684;48.358;10.746;2023-04-08T01:28:40;96290.00;;;7.00;100.00
10014;BME280;45684;48.358;10.746;2023-04-08T01:31:09;96296.88;;;6.87;100.00
10014;BME280;45684;48.358;10.746;2023-04-08T01:33:37;96287.88;;;6.78;100.00
10014;BME280;45684;48.358;10.746;2023-04-08T01:36:05;96291.97;;;6.71;100.00
10014;BME280;45684;48.358;10.746;2023-04-08T01:38:38;96294.19;;;6.69;100.00
10014;BME280;45684;48.358;10.746;2023-04-08T01:41:08;96295.59;;;6.61;100.00
10014;BME280;45684;48.358;10.746;2023-04-08T01:43:43;96298.72;;;6.49;100.00
10014;BME280;45684;48.358;10.746;2023-04-08T01:46:12;96294.09;;;6.31;100.00
10014;BME280;45684;48.358;10.746;2023-04-08T01:48:40;96295.91;;;6.11;100.00
10014;BME280;45684;48.358;10.746;2023-04-08T01:51:08;96294.38;;;6.00;100.00
10014;BME280;45684;48.358;10.746;2023-04-08T01:53:36;96297.44;;;5.88;100.00
10014;BME280;45684;48.358;10.746;2023-04-08T01:56:06;96286.50;;;5.80;100.00
10014;BME280;45684;48.358;10.746;2023-04-08T01:58:37;96289.84;;;5.67;100.00
10014;BME280;45684;48.358;10.746;2023-04-08T02:01:10;96295.00;;;5.58;100.00
10014;BME280;45684;48.358;10.746;2023-04-08T02:03:40;96300.16;;;5.49;100.00
10014;BME280;45684;48.358;10.746;2023-04-08T02:06:09;96303.97;;;5.43;100.00
10014;BME280;45684;48.358;10.746;2023-04-08T02:08:37;96305.59;;;5.39;100.00
10014;BME280;45684;48.358;10.746;2023-04-08T02:11:04;96304.06;;;5.33;100.00
10014;BME280;45684;48.358;10.746;2023-04-08T02:13:32;96301.66;;;5.26;100.00
10014;BME280;45684;48.358;10.746;2023-04-08T02:16:03;96308.94;;;5.21;100.00
10014;BME280;45684;48.358;10.746;2023-04-08T02:18:36;96310.81;;;5.20;100.00
10014;BME280;45684;48.358;10.746;2023-04-08T02:21:10;96311.66;;;5.16;100.00
10014;BME280;45684;48.358;10.746;2023-04-08T02:23:40;96311.97;;;5.09;100.00
10014;BME280;45684;48.358;10.746;2023-04-08T02:26:12;96309.84;;;5.06;100.00
10014;BME280;45684;48.358;10.746;2023-04-08T02:28:41;96312.31;;;4.97;100.00
10014;BME280;45684;48.358;10.746;2023-04-08T02:31:11;96317.69;;;4.92;100.00
10014;BME280;45684;48.358;10.746;2023-04-08T02:33:45;96315.56;;;4.89;100.00
10014;BME280;45684;48.358;10.746;2023-04-08T02:36:14;96320.13;;;4.89;100.00
10014;BME280;45684;48.358;10.746;2023-04-08T02:38:46;96313.69;;;4.84;100.00
10014;BME280;45684;48.358;10.746;2023-04-08T02:41:15;96311.06;;;4.74;100.00
10014;BME280;45684;48.358;10.746;2023-04-08T02:43:43;96317.81;;;4.72;100.00
10014;BME280;45684;48.358;10.746;2023-04-08T02:46:13;96311.38;;;4.68;100.00
10014;BME280;45684;48.358;10.746;2023-04-08T02:48:41;96317.53;;;4.68;100.00
10014;BME280;45684;48.358;10.746;2023-04-08T02:51:10;96321.56;;;4.66;100.00
10014;BME280;45684;48.358;10.746;2023-04-08T02:53:38;96318.66;;;4.62;100.00
10014;BME280;45684;48.358;10.746;2023-04-08T02:56:09;96306.09;;;4.57;100.00
10014;BME280;45684;48.358;10.746;2023-04-08T02:58:37;96315.44;;;4.55;100.00
10014;BME280;45684;48.358;10.746;2023-04-08T03:01:04;96307.13;;;4.56;100.00
10014;BME280;45684;48.358;10.746;2023-04-08T03:03:32;96312.78;;;4.55;100.00
10014;BME280;45684;48.358;10.746;2023-04-08T03:06:00;96304.47;;;4.51;100.00
10014;BME280;45684;48.358;10.746;2023-04-08T03:08:29;96304.47;;;4.51;100.00
10014;BME280;45684;48.358;10.746;2023-04-08T03:10:58;96304.50;;;4.46;100.00
10014;BME280;45684;48.358;10.746;2023-04-08T03:13:25;96309.59;;;4.43;100.00
10014;BME280;45684;48.358;10.746;2023-04-08T03:15:55;96306.94;;;4.38;100.00
10014;BME280;45684;48.358;10.746;2023-04-08T03:18:23;96311.50;;;4.32;100.00
10014;BME280;45684;48.358;10.746;2023-04-08T03:20:51;96307.53;;;4.24;100.00
10014;BME280;45684;48.358;10.746;2023-04-08T03:23:18;96308.88;;;4.17;100.00
10014;BME280;45684;48.358;10.746;2023-04-08T03:25:47;96310.50;;;4.13;100.00
10014;BME280;45684;48.358;10.746;2023-04-08T03:28:15;96309.97;;;4.11;100.00
10014;BME280;45684;48.358;10.746;2023-04-08T03:30:43;96311.31;;;4.08;100.00
10014;BME280;45684;48.358;10.746;2023-04-08T03:33:11;96315.88;;;4.02;100.00
10014;BME280;45684;48.358;10.746;2023-04-08T03:35:39;96310.53;;;3.97;100.00
10014;BME280;45684;48.358;10.746;2023-04-08T03:38:06;96314.53;;;3.95;100.00
10014;BME280;45684;48.358;10.746;2023-04-08T03:40:34;96314.81;;;3.93;100.00
10014;BME280;45684;48.358;10.746;2023-04-08T03:43:03;96321.75;;;3.94;100.00
10014;BME280;45684;48.358;10.746;2023-04-08T03:45:34;96317.47;;;3.98;100.00
10014;BME280;45684;48.358;10.746;2023-04-08T03:48:02;96326.03;;;4.00;100.00
10014;BME280;45684;48.358;10.746;2023-04-08T03:50:29;96320.66;;;4.05;100.00
10014;BME280;45684;48.358;10.746;2023-04-08T03:52:57;96324.94;;;4.12;100.00
10014;BME280;45684;48.358;10.746;2023-04-08T03:55:25;96324.13;;;4.16;100.00
10014;BME280;45684;48.358;10.746;2023-04-08T03:57:53;96327.88;;;4.20;100.00
10014;BME280;45684;48.358;10.746;2023-04-08T04:00:22;96328.94;;;4.24;100.00
10014;BME280;45684;48.358;10.746;2023-04-08T04:02:50;96330.25;;;4.27;100.00
10014;BME280;45684;48.358;10.746;2023-04-08T04:05:18;96328.91;;;4.34;100.00
10014;BME280;45684;48.358;10.746;2023-04-08T04:07:46;96337.44;;;4.42;100.00
10014;BME280;45684;48.358;10.746;2023-04-08T04:10:14;96334.22;;;4.50;100.00
10014;BME280;45684;48.358;10.746;2023-04-08T04:12:41;96340.91;;;4.57;100.00
10014;BME280;45684;48.358;10.746;2023-04-08T04:15:10;96335.22;;;4.64;100.00
10014;BME280;45684;48.358;10.746;2023-04-08T04:17:39;96341.91;;;4.72;100.00
10014;BME280;45684;48.358;10.746;2023-04-08T04:20:08;96340.81;;;4.78;100.00
10014;BME280;45684;48.358;10.746;2023-04-08T04:22:36;96346.94;;;4.83;100.00
10014;BME280;45684;48.358;10.746;2023-04-08T04:25:05;96338.88;;;4.89;100.00
10014;BME280;45684;48.358;10.746;2023-04-08T04:27:33;96350.34;;;4.94;100.00
10014;BME280;45684;48.358;10.746;2023-04-08T04:30:01;96351.97;;;5.00;100.00
10014;BME280;45684;48.358;10.746;2023-04-08T04:32:29;96354.59;;;5.05;100.00
10014;BME280;45684;48.358;10.746;2023-04-08T04:34:58;96353.50;;;5.11;100.00
10014;BME280;45684;48.358;10.746;2023-04-08T04:37:26;96352.16;;;5.14;100.00
10014;BME280;45684;48.358;10.746;2023-04-08T04:39:54;96358.56;;;5.18;100.00
10014;BME280;45684;48.358;10.746;2023-04-08T04:42:21;96347.81;;;5.23;100.00
10014;BME280;45684;48.358;10.746;2023-04-08T04:44:49;96358.75;;;5.27;100.00
10014;BME280;45684;48.358;10.746;2023-04-08T04:47:17;96354.75;;;5.29;100.00
10014;BME280;45684;48.358;10.746;2023-04-08T04:49:45;96351.78;;;5.31;100.00
10014;BME280;45684;48.358;10.746;2023-04-08T04:52:14;96362.47;;;5.36;100.00
10014;BME280;45684;48.358;10.746;2023-04-08T04:54:42;96361.63;;;5.41;100.00
10014;BME280;45684;48.358;10.746;2023-04-08T04:57:10;96363.47;;;5.45;100.00
10014;BME280;45684;48.358;10.746;2023-04-08T04:59:38;96361.03;;;5.49;100.00
10014;BME280;45684;48.358;10.746;2023-04-08T05:02:05;96365.56;;;5.53;100.00
10014;BME280;45684;48.358;10.746;2023-04-08T05:04:33;96369.00;;;5.59;100.00
10014;BME280;45684;48.358;10.746;2023-04-08T05:07:01;96375.69;;;5.67;100.00
10014;BME280;45684;48.358;10.746;2023-04-08T05:09:30;96374.56;;;5.73;100.00
10014;BME280;45684;48.358;10.746;2023-04-08T05:11:58;96373.97;;;5.81;100.00
10014;BME280;45684;48.358;10.746;2023-04-08T05:14:27;96373.41;;;5.84;100.00
10014;BME280;45684;48.358;10.746;2023-04-08T05:16:55;96372.56;;;5.88;100.00
10014;BME280;45684;48.358;10.746;2023-04-08T05:19:23;96376.03;;;5.94;100.00
10014;BME280;45684;48.358;10.746;2023-04-08T05:21:51;96386.22;;;5.97;100.00
10014;BME280;45684;48.358;10.746;2023-04-08T05:24:19;96387.03;;;5.98;100.00
10014;BME280;45684;48.358;10.746;2023-04-08T05:26:48;96391.00;;;6.00;100.00
10014;BME280;45684;48.358;10.746;2023-04-08T05:29:18;96396.63;;;6.04;100.00
10014;BME280;45684;48.358;10.746;2023-04-08T05:31:47;96389.31;;;6.09;100.00
10014;BME280;45684;48.358;10.746;2023-04-08T05:34:15;96389.28;;;6.14;100.00
10014;BME280;45684;48.358;10.746;2023-04-08T05:36:48;96383.34;;;6.18;100.00
10014;BME280;45684;48.358;10.746;2023-04-08T05:39:17;96381.41;;;6.23;100.00
10014;BME280;45684;48.358;10.746;2023-04-08T05:41:45;96390.75;;;6.31;100.00
10014;BME280;45684;48.358;10.746;2023-04-08T05:44:14;96389.63;;;6.37;100.00
10014;BME280;45684;48.358;10.746;2023-04-08T05:46:42;96391.69;;;6.45;100.00
10014;BME280;45684;48.358;10.746;2023-04-08T05:49:10;96386.22;;;6.55;100.00
10014;BME280;45684;48.358;10.746;2023-04-08T05:51:37;96399.03;;;6.63;100.00
10014;BME280;45684;48.358;10.746;2023-04-08T05:54:05;96389.50;;;6.76;100.00
10014;BME280;45684;48.358;10.746;2023-04-08T05:56:33;96399.03;;;6.87;100.00
10014;BME280;45684;48.358;10.746;2023-04-08T05:59:01;96391.56;;;7.03;100.00
10014;BME280;45684;48.358;10.746;2023-04-08T06:01:30;96399.56;;;7.08;100.00
10014;BME280;45684;48.358;10.746;2023-04-08T06:03:58;96397.78;;;7.23;100.00
10014;BME280;45684;48.358;10.746;2023-04-08T06:06:26;96397.22;;;7.26;100.00
10014;BME280;45684;48.358;10.746;2023-04-08T06:08:54;96399.19;;;7.39;100.00
10014;BME280;45684;48.358;10.746;2023-04-08T06:11:22;96400.94;;;7.49;100.00
10014;BME280;45684;48.358;10.746;2023-04-08T06:13:49;96409.75;;;7.54;100.00
10014;BME280;45684;48.358;10.746;2023-04-08T06:16:17;96415.06;;;7.59;100.00
10014;BME280;45684;48.358;10.746;2023-04-08T06:18:48;96414.94;;;7.70;100.00
10014;BME280;45684;48.358;10.746;2023-04-08T06:21:16;96415.72;;;7.70;100.00
10014;BME280;45684;48.358;10.746;2023-04-08T06:23:44;96421.91;;;7.71;100.00
10014;BME280;45684;48.358;10.746;2023-04-08T06:26:11;96420.25;;;7.75;100.00
10014;BME280;45684;48.358;10.746;2023-04-08T06:28:39;96420.25;;;7.75;100.00
10014;BME280;45684;48.358;10.746;2023-04-08T06:31:07;96422.25;;;7.83;100.00
10014;BME280;45684;48.358;10.746;2023-04-08T06:33:35;96418.81;;;7.96;100.00
10014;BME280;45684;48.358;10.746;2023-04-08T06:36:06;96419.50;;;8.07;100.00
10014;BME280;45684;48.358;10.746;2023-04-08T06:38:34;96417.69;;;8.02;100.00
10014;BME280;45684;48.358;10.746;2023-04-08T06:41:02;96426.75;;;8.06;100.00
10014;BME280;45684;48.358;10.746;2023-04-08T06:43:30;96424.72;;;8.17;100.00
10014;BME280;45684;48.358;10.746;2023-04-08T06:45:58;96429.22;;;8.22;100.00
10014;BME280;45684;48.358;10.746;2023-04-08T06:48:26;96431.03;;;8.26;100.00
10014;BME280;45684;48.358;10.746;2023-04-08T06:50:56;96434.59;;;8.40;100.00
10014;BME280;45684;48.358;10.746;2023-04-08T06:53:26;96433.81;;;8.54;100.00
10014;BME280;45684;48.358;10.746;2023-04-08T06:55:54;96431.63;;;8.56;100.00
10014;BME280;45684;48.358;10.746;2023-04-08T06:58:22;96431.06;;;8.73;100.00
10014;BME280;45684;48.358;10.746;2023-04-08T07:00:50;96435.97;;;8.84;100.00
10014;BME280;45684;48.358;10.746;2023-04-08T07:03:18;96437.06;;;8.97;100.00
10014;BME280;45684;48.358;10.746;2023-04-08T07:05:46;96435.19;;;9.11;100.00
10014;BME280;45684;48.358;10.746;2023-04-08T07:08:14;96437.56;;;9.27;100.00
10014;BME280;45684;48.358;10.746;2023-04-08T07:10:43;96442.97;;;9.27;100.00
10014;BME280;45684;48.358;10.746;2023-04-08T07:13:11;96438.66;;;9.39;100.00
10014;BME280;45684;48.358;10.746;2023-04-08T07:15:40;96450.78;;;9.42;100.00
10014;BME280;45684;48.358;10.746;2023-04-08T07:18:08;96449.34;;;9.58;100.00
10014;BME280;45684;48.358;10.746;2023-04-08T07:20:36;96454.94;;;9.62;100.00
10014;BME280;45684;48.358;10.746;2023-04-08T07:23:04;96457.66;;;9.62;100.00
10014;BME280;45684;48.358;10.746;2023-04-08T07:25:32;96465.41;;;9.77;100.00
10014;BME280;45684;48.358;10.746;2023-04-08T07:28:02;96470.72;;;9.68;100.00
10014;BME280;45684;48.358;10.746;2023-04-08T07:30:30;96471.81;;;9.67;100.00
10014;BME280;45684;48.358;10.746;2023-04-08T07:32:59;96465.81;;;9.84;100.00
10014;BME280;45684;48.358;10.746;2023-04-08T07:35:29;96479.56;;;9.96;100.00
10014;BME280;45684;48.358;10.746;2023-04-08T07:37:57;96482.78;;;9.99;100.00
10014;BME280;45684;48.358;10.746;2023-04-08T07:40:25;96480.59;;;9.87;100.00
10014;BME280;45684;48.358;10.746;2023-04-08T07:42:53;96476.19;;;9.91;100.00
10014;BME280;45684;48.358;10.746;2023-04-08T07:45:22;96478.94;;;10.13;100.00
10014;BME280;45684;48.358;10.746;2023-04-08T07:47:50;96485.19;;;10.22;100.00
10014;BME280;45684;48.358;10.746;2023-04-08T07:50:18;96481.38;;;10.23;100.00
10014;BME280;45684;48.358;10.746;2023-04-08T07:52:46;96488.63;;;10.14;100.00
10014;BME280;45684;48.358;10.746;2023-04-08T07:55:14;96493.13;;;10.19;100.00
10014;BME280;45684;48.358;10.746;2023-04-08T07:57:41;96496.91;;;10.32;100.00
10014;BME280;45684;48.358;10.746;2023-04-08T08:00:10;96495.94;;;10.50;100.00
10014;BME280;45684;48.358;10.746;2023-04-08T08:02:42;96494.22;;;10.54;100.00
10014;BME280;45684;48.358;10.746;2023-04-08T08:05:10;96495.38;;;10.62;100.00
10014;BME280;45684;48.358;10.746;2023-04-08T08:07:38;96487.81;;;10.72;100.00
10014;BME280;45684;48.358;10.746;2023-04-08T08:10:07;96486.97;;;10.63;100.00
10014;BME280;45684;48.358;10.746;2023-04-08T08:12:35;96496.91;;;10.77;100.00
10014;BME280;45684;48.358;10.746;2023-04-08T08:15:03;96494.69;;;10.79;100.00
10014;BME280;45684;48.358;10.746;2023-04-08T08:17:31;96500.69;;;10.98;98.15
10014;BME280;45684;48.358;10.746;2023-04-08T08:20:01;96506.38;;;10.88;93.27
10014;BME280;45684;48.358;10.746;2023-04-08T08:22:29;96514.75;;;10.78;93.61
10014;BME280;45684;48.358;10.746;2023-04-08T08:24:57;96513.56;;;10.92;93.68
10014;BME280;45684;48.358;10.746;2023-04-08T08:27:25;96511.56;;;11.07;94.43
10014;BME280;45684;48.358;10.746;2023-04-08T08:29:53;96521.41;;;11.03;86.98
10014;BME280;45684;48.358;10.746;2023-04-08T08:32:21;96514.53;;;10.96;88.88
10014;BME280;45684;48.358;10.746;2023-04-08T08:34:48;96520.50;;;10.85;88.54
10014;BME280;45684;48.358;10.746;2023-04-08T08:37:17;96517.66;;;10.90;89.19
10014;BME280;45684;48.358;10.746;2023-04-08T08:39:45;96526.44;;;10.95;87.69
10014;BME280;45684;48.358;10.746;2023-04-08T08:42:20;96528.81;;;10.88;87.38
10014;BME280;45684;48.358;10.746;2023-04-08T08:44:48;96532.06;;;10.77;81.81
10014;BME280;45684;48.358;10.746;2023-04-08T08:47:17;96539.22;;;10.50;81.62
10014;BME280;45684;48.358;10.746;2023-04-08T08:49:46;96542.06;;;10.54;79.56
10014;BME280;45684;48.358;10.746;2023-04-08T08:52:15;96553.16;;;10.30;76.36
10014;BME280;45684;48.358;10.746;2023-04-08T08:54:44;96546.00;;;9.97;80.54
10014;BME280;45684;48.358;10.746;2023-04-08T08:57:16;96547.34;;;9.73;85.51
10014;BME280;45684;48.358;10.746;2023-04-08T08:59:45;96551.03;;;9.49;89.20
10014;BME280;45684;48.358;10.746;2023-04-08T09:02:24;96546.31;;;9.27;94.84
10014;BME280;45684;48.358;10.746;2023-04-08T09:04:56;96548.59;;;9.06;95.89
10014;BME280;45684;48.358;10.746;2023-04-08T09:07:25;96556.66;;;8.92;99.32
10014;BME280;45684;48.358;10.746;2023-04-08T09:09:56;96550.31;;;8.83;100.00
10014;BME280;45684;48.358;10.746;2023-04-08T09:12:24;96553.31;;;8.82;100.00
10014;BME280;45684;48.358;10.746;2023-04-08T09:15:02;96546.31;;;8.81;100.00
10014;BME280;45684;48.358;10.746;2023-04-08T09:17:31;96547.53;;;8.88;100.00
10014;BME280;45684;48.358;10.746;2023-04-08T09:20:04;96545.63;;;8.89;100.00
10014;BME280;45684;48.358;10.746;2023-04-08T09:22:53;96542.59;;;9.09;100.00
10014;BME280;45684;48.358;10.746;2023-04-08T09:25:24;96548.50;;;8.79;100.00
10014;BME280;45684;48.358;10.746;2023-04-08T09:27:52;96557.34;;;8.65;100.00
10014;BME280;45684;48.358;10.746;2023-04-08T09:30:22;96546.91;;;8.78;100.00
10014;BME280;45684;48.358;10.746;2023-04-08T09:32:50;96552.47;;;9.00;100.00
10014;BME280;45684;48.358;10.746;2023-04-08T09:35:19;96551.69;;;9.13;100.00
10014;BME280;45684;48.358;10.746;2023-04-08T09:37:48;96549.91;;;9.23;100.00
10014;BME280;45684;48.358;10.746;2023-04-08T09:40:17;96545.03;;;9.38;100.00
10014;BME280;45684;48.358;10.746;2023-04-08T09:42:47;96549.66;;;9.52;100.00
10014;BME280;45684;48.358;10.746;2023-04-08T09:45:17;96558.03;;;9.50;98.20
10014;BME280;45684;48.358;10.746;2023-04-08T09:47:55;96543.72;;;9.50;100.00
10014;BME280;45684;48.358;10.746;2023-04-08T09:50:26;96545.84;;;9.66;100.00
10014;BME280;45684;48.358;10.746;2023-04-08T09:53:00;96551.44;;;9.70;98.42
10014;BME280;45684;48.358;10.746;2023-04-08T09:55:29;96545.16;;;9.75;99.40
10014;BME280;45684;48.358;10.746;2023-04-08T09:58:03;96550.03;;;9.86;97.11
10014;BME280;45684;48.358;10.746;2023-04-08T10:00:37;96548.19;;;10.09;96.28
10014;BME280;45684;48.358;10.746;2023-04-08T10:03:10;96539.53;;;10.21;94.59
10014;BME280;45684;48.358;10.746;2023-04-08T10:05:42;96543.13;;;9.94;95.06
10014;BME280;45684;48.358;10.746;2023-04-08T10:08:12;96545.38;;;10.14;91.16
10014;BME280;45684;48.358;10.746;2023-04-08T10:10:40;96541.97;;;10.22;89.66
10014;BME280;45684;48.358;10.746;2023-04-08T10:13:09;96538.78;;;9.93;89.01
10014;BME280;45684;48.358;10.746;2023-04-08T10:15:38;96542.09;;;10.04;83.50
10014;BME280;45684;48.358;10.746;2023-04-08T10:18:29;96538.25;;;10.32;87.10
10014;BME280;45684;48.358;10.746;2023-04-08T10:20:58;96537.69;;;10.44;83.20
10014;BME280;45684;48.358;10.746;2023-04-08T10:23:54;96549.78;;;10.60;76.77
10014;BME280;45684;48.358;10.746;2023-04-08T10:26:38;96540.63;;;10.70;73.32
10014;BME280;45684;48.358;10.746;2023-04-08T10:29:35;96545.78;;;11.03;73.96
10014;BME280;45684;48.358;10.746;2023-04-08T10:32:03;96547.69;;;11.02;71.80
10014;BME280;45684;48.358;10.746;2023-04-08T10:34:31;96542.31;;;11.11;71.64
10014;BME280;45684;48.358;10.746;2023-04-08T10:36:59;96536.03;;;11.33;69.37
10014;BME280;45684;48.358;10.746;2023-04-08T10:39:27;96536.13;;;10.88;71.42
10014;BME280;45684;48.358;10.746;2023-04-08T10:41:56;96541.13;;;11.26;66.76
10014;BME280;45684;48.358;10.746;2023-04-08T10:44:25;96544.34;;;11.36;68.67
10014;BME280;45684;48.358;10.746;2023-04-08T10:46:54;96541.72;;;11.54;65.03
10014;BME280;45684;48.358;10.746;2023-04-08T10:49:31;96538.41;;;11.65;65.40
10014;BME280;45684;48.358;10.746;2023-04-08T10:51:59;96536.09;;;11.81;64.23
10014;BME280;45684;48.358;10.746;2023-04-08T10:54:27;96537.75;;;12.17;63.92
10014;BME280;45684;48.358;10.746;2023-04-08T10:56:55;96538.25;;;12.54;61.03
10014;BME280;45684;48.358;10.746;2023-04-08T10:59:27;96540.31;;;12.31;57.47
10014;BME280;45684;48.358;10.746;2023-04-08T11:01:56;96544.31;;;12.76;58.81
10014;BME280;45684;48.358;10.746;2023-04-08T11:04:25;96536.53;;;12.58;58.95
10014;BME280;45684;48.358;10.746;2023-04-08T11:06:54;96536.00;;;12.99;53.47
10014;BME280;45684;48.358;10.746;2023-04-08T11:09:21;96527.06;;;12.90;54.96
10014;BME280;45684;48.358;10.746;2023-04-08T11:11:51;96530.56;;;12.99;53.70
10014;BME280;45684;48.358;10.746;2023-04-08T11:14:19;96536.94;;;13.03;55.91
10014;BME280;45684;48.358;10.746;2023-04-08T11:16:47;96532.06;;;12.62;55.01
10014;BME280;45684;48.358;10.746;2023-04-08T11:19:17;96522.44;;;12.82;58.34
10014;BME280;45684;48.358;10.746;2023-04-08T11:21:46;96530.28;;;12.66;52.75
10014;BME280;45684;48.358;10.746;2023-04-08T11:24:14;96525.19;;;12.47;54.02
10014;BME280;45684;48.358;10.746;2023-04-08T11:26:42;96529.97;;;12.59;60.71
10014;BME280;45684;48.358;10.746;2023-04-08T11:29:10;96530.28;;;12.74;64.17
10014;BME280;45684;48.358;10.746;2023-04-08T11:31:40;96533.50;;;12.42;55.92
10014;BME280;45684;48.358;10.746;2023-04-08T11:34:09;96532.06;;;12.70;56.51
10014;BME280;45684;48.358;10.746;2023-04-08T11:36:40;96525.03;;;12.69;59.92
10014;BME280;45684;48.358;10.746;2023-04-08T11:39:08;96529.00;;;12.81;62.08
10014;BME280;45684;48.358;10.746;2023-04-08T11:41:38;96528.22;;;12.63;56.13
10014;BME280;45684;48.358;10.746;2023-04-08T11:44:06;96530.28;;;12.66;54.71
10014;BME280;45684;48.358;10.746;2023-04-08T11:46:34;96533.03;;;12.31;56.14
10014;BME280;45684;48.358;10.746;2023-04-08T11:49:03;96528.06;;;12.33;61.98
10014;BME280;45684;48.358;10.746;2023-04-08T11:51:32;96525.31;;;12.16;59.32
10014;BME280;45684;48.358;10.746;2023-04-08T11:54:04;96522.97;;;11.74;59.70
10014;BME280;45684;48.358;10.746;2023-04-08T11:56:43;96527.44;;;11.70;59.34
10014;BME280;45684;48.358;10.746;2023-04-08T11:59:12;96538.00;;;11.81;61.21
10014;BME280;45684;48.358;10.746;2023-04-08T12:01:40;96531.91;;;11.66;66.54
10014;BME280;45684;48.358;10.746;2023-04-08T12:04:09;96529.66;;;11.68;67.86
10014;BME280;45684;48.358;10.746;2023-04-08T12:06:37;96533.59;;;11.22;63.15
10014;BME280;45684;48.358;10.746;2023-04-08T12:09:10;96542.44;;;11.37;67.57
10014;BME280;45684;48.358;10.746;2023-04-08T12:11:38;96530.84;;;11.45;66.81
10014;BME280;45684;48.358;10.746;2023-04-08T12:14:05;96542.44;;;11.37;70.32
10014;BME280;45684;48.358;10.746;2023-04-08T12:16:34;96543.91;;;11.43;75.33
10014;BME280;45684;48.358;10.746;2023-04-08T12:19:02;96547.69;;;11.33;71.12
10014;BME280;45684;48.358;10.746;2023-04-08T12:21:30;96540.47;;;11.20;73.50
10014;BME280;45684;48.358;10.746;2023-04-08T12:23:59;96536.59;;;11.12;69.36
10014;BME280;45684;48.358;10.746;2023-04-08T12:26:28;96540.22;;;11.08;69.39
10014;BME280;45684;48.358;10.746;2023-04-08T12:28:56;96547.88;;;11.06;70.50
10014;BME280;45684;48.358;10.746;2023-04-08T12:31:24;96544.72;;;10.90;67.18
10014;BME280;45684;48.358;10.746;2023-04-08T12:33:53;96542.53;;;10.92;74.28
10014;BME280;45684;48.358;10.746;2023-04-08T12:36:21;96555.41;;;10.95;75.62
10014;BME280;45684;48.358;10.746;2023-04-08T12:38:49;96558.38;;;10.85;71.10
10014;BME280;45684;48.358;10.746;2023-04-08T12:41:17;96551.00;;;10.77;74.32
10014;BME280;45684;48.358;10.746;2023-04-08T12:43:46;96557.16;;;10.68;72.87
10014;BME280;45684;48.358;10.746;2023-04-08T12:46:14;96561.00;;;10.54;70.63
10014;BME280;45684;48.358;10.746;2023-04-08T12:48:42;96556.94;;;10.42;76.79
10014;BME280;45684;48.358;10.746;2023-04-08T12:51:12;96560.97;;;10.45;73.95
10014;BME280;45684;48.358;10.746;2023-04-08T12:53:40;96570.53;;;10.51;73.62
10014;BME280;45684;48.358;10.746;2023-04-08T12:56:08;96559.09;;;10.18;74.03
10014;BME280;45684;48.358;10.746;2023-04-08T12:58:36;96563.63;;;9.95;76.25
10014;BME280;45684;48.358;10.746;2023-04-08T13:01:05;96556.91;;;10.06;82.43